createdAt,value
2023-02-14T00:00:49.096Z,9.65
2023-02-14T00:03:16.239Z,9.90
2023-02-14T00:05:43.207Z,8.35
2023-02-14T00:08:10.155Z,10.82
2023-02-14T00:10:37.177Z,10.15
2023-02-14T00:13:05.087Z,10.35
2023-02-14T00:15:31.868Z,9.95
2023-02-14T00:18:02.277Z,14.40
2023-02-14T00:20:29.440Z,10.30
2023-02-14T00:22:56.299Z,8.82
2023-02-14T00:25:23.261Z,9.02
2023-02-14T00:27:50.271Z,9.25
2023-02-14T00:30:17.329Z,8.57
2023-02-14T00:32:44.381Z,10.40
2023-02-14T00:35:11.710Z,12.40
2023-02-14T00:37:41.048Z,10.75
2023-02-14T00:40:08.531Z,12.73
2023-02-14T00:42:35.392Z,9.43
2023-02-14T00:45:02.409Z,10.32
2023-02-14T00:47:29.306Z,12.85
2023-02-14T00:49:56.266Z,9.35
2023-02-14T00:52:25.631Z,8.80
2023-02-14T00:54:52.611Z,9.48
2023-02-14T00:57:19.406Z,8.60
2023-02-14T00:59:46.317Z,9.50
2023-02-14T01:02:13.228Z,8.95
2023-02-14T01:04:40.194Z,11.95
2023-02-14T01:07:07.032Z,8.43
2023-02-14T01:09:35.188Z,10.82
2023-02-14T01:12:02.431Z,10.25
2023-02-14T01:14:29.341Z,11.45
2023-02-14T01:16:56.260Z,9.85
2023-02-14T01:19:24.649Z,7.03
2023-02-14T01:21:51.511Z,7.72
2023-02-14T01:24:18.352Z,7.93
2023-02-14T01:26:45.268Z,7.35
2023-02-14T01:29:12.093Z,8.05
2023-02-14T01:31:39.209Z,8.27
2023-02-14T01:34:06.292Z,10.25
2023-02-14T01:36:36.964Z,12.25
2023-02-14T01:39:12.525Z,8.63
2023-02-14T01:41:41.608Z,6.82
2023-02-14T01:44:48.237Z,9.30
2023-02-14T01:47:16.036Z,9.10
2023-02-14T01:49:48.178Z,9.02
2023-02-14T01:52:30.218Z,8.98
2023-02-14T01:55:13.201Z,11.95
2023-02-14T01:57:48.253Z,10.02
2023-02-14T02:00:36.746Z,9.13
2023-02-14T02:03:05.616Z,8.93
2023-02-14T02:05:32.612Z,8.50
2023-02-14T02:08:00.772Z,11.15
2023-02-14T02:10:28.343Z,10.88
2023-02-14T02:12:55.443Z,11.77
2023-02-14T02:15:24.358Z,10.55
2023-02-14T02:18:27.240Z,8.57
2023-02-14T02:21:16.122Z,8.13
2023-02-14T02:24:08.123Z,8.38
2023-02-14T02:27:15.043Z,7.95
2023-02-14T02:30:21.770Z,8.88
2023-02-14T02:33:28.564Z,8.95
2023-02-14T02:36:18.786Z,9.68
2023-02-14T02:39:25.455Z,9.18
2023-02-14T02:42:18.266Z,9.57
2023-02-14T02:44:54.603Z,9.20
2023-02-14T02:47:33.643Z,11.18
2023-02-14T02:50:38.696Z,10.60
2023-02-14T02:53:34.314Z,10.85
2023-02-14T02:56:28.143Z,10.23
2023-02-14T02:59:00.776Z,9.65
2023-02-14T03:01:34.227Z,9.40
2023-02-14T03:04:24.259Z,11.05
2023-02-14T03:06:51.967Z,12.07
2023-02-14T03:09:57.698Z,15.05
2023-02-14T03:12:47.961Z,15.40
2023-02-14T03:15:42.474Z,17.55
2023-02-14T03:18:46.513Z,14.07
2023-02-14T03:21:29.119Z,15.27
2023-02-14T03:24:19.773Z,12.98
2023-02-14T03:26:54.638Z,8.95
2023-02-14T03:29:44.379Z,9.75
2023-02-14T03:32:39.103Z,10.07
2023-02-14T03:35:28.597Z,9.10
2023-02-14T03:38:18.044Z,9.48
2023-02-14T03:40:54.638Z,9.52
2023-02-14T03:43:26.843Z,9.50
2023-02-14T03:46:15.572Z,9.23
2023-02-14T03:48:42.938Z,9.55
2023-02-14T03:51:12.253Z,14.30
2023-02-14T03:53:43.577Z,11.05
2023-02-14T03:56:34.524Z,10.82
2023-02-14T03:59:07.765Z,9.25
2023-02-14T04:01:45.111Z,9.55
2023-02-14T04:04:14.966Z,8.73
2023-02-14T04:06:41.857Z,8.38
2023-02-14T04:09:08.637Z,9.63
2023-02-14T04:11:35.760Z,9.13
2023-02-14T04:14:03.309Z,10.98
2023-02-14T04:16:30.237Z,11.07
2023-02-14T04:19:16.980Z,8.68
2023-02-14T04:21:43.995Z,9.30
2023-02-14T04:24:10.859Z,8.80
2023-02-14T04:26:37.754Z,8.98
2023-02-14T04:29:04.579Z,9.02
2023-02-14T04:31:31.642Z,8.82
2023-02-14T04:33:58.525Z,9.10
2023-02-14T04:36:25.354Z,10.65
2023-02-14T04:38:52.138Z,10.23
2023-02-14T04:41:19.064Z,10.55
2023-02-14T04:43:45.878Z,9.27
2023-02-14T04:46:13.475Z,10.40
2023-02-14T04:48:40.394Z,9.75
2023-02-14T04:51:07.297Z,11.23
2023-02-14T04:53:40.176Z,9.02
2023-02-14T04:56:08.356Z,9.88
2023-02-14T04:58:35.434Z,10.85
2023-02-14T05:01:02.821Z,10.85
2023-02-14T05:03:29.881Z,10.35
2023-02-14T05:05:56.763Z,9.50
2023-02-14T05:08:23.615Z,8.73
2023-02-14T05:10:50.576Z,9.10
2023-02-14T05:13:49.511Z,9.95
2023-02-14T05:19:38.393Z,6.78
2023-02-14T05:22:05.459Z,5.05
2023-02-14T05:24:32.278Z,8.02
2023-02-14T05:26:59.193Z,9.95
2023-02-14T05:29:26.132Z,10.35
2023-02-14T05:31:53.554Z,11.68
2023-02-14T05:34:21.784Z,11.75
2023-02-14T05:36:48.806Z,11.55
2023-02-14T05:39:15.738Z,12.00
2023-02-14T05:41:42.550Z,13.73
2023-02-14T05:44:09.552Z,14.57
2023-02-14T05:46:36.476Z,13.95
2023-02-14T05:49:03.800Z,11.40
2023-02-14T05:51:30.813Z,14.65
2023-02-14T05:54:00.099Z,18.25
2023-02-14T05:56:27.530Z,14.07
2023-02-14T05:58:54.333Z,13.90
2023-02-14T06:01:21.438Z,12.82
2023-02-14T06:03:48.343Z,11.10
2023-02-14T06:06:15.236Z,9.25
2023-02-14T06:08:42.220Z,10.13
2023-02-14T06:11:09.039Z,8.95
2023-02-14T06:13:35.927Z,9.88
2023-02-14T06:16:04.579Z,8.93
2023-02-14T06:18:31.467Z,11.30
2023-02-14T06:20:58.804Z,13.95
2023-02-14T06:23:26.205Z,28.35
2023-02-14T06:25:53.109Z,53.88
2023-02-14T06:28:20.072Z,28.60
2023-02-14T06:30:47.749Z,14.93
2023-02-14T06:33:14.790Z,12.10
2023-02-14T06:35:41.798Z,9.70
2023-02-14T06:38:08.765Z,12.10
2023-02-14T06:40:35.624Z,19.10
2023-02-14T06:43:02.721Z,18.88
2023-02-14T06:45:29.574Z,18.00
2023-02-14T06:47:56.539Z,23.95
2023-02-14T06:50:23.436Z,18.40
2023-02-14T06:52:51.476Z,12.52
2023-02-14T06:55:18.958Z,11.25
2023-02-14T06:57:45.877Z,8.90
2023-02-14T07:00:15.005Z,9.50
2023-02-14T07:02:42.519Z,10.70
2023-02-14T07:05:09.438Z,12.23
2023-02-14T07:07:36.542Z,18.80
2023-02-14T07:10:03.571Z,14.93
2023-02-14T07:12:30.556Z,11.05
2023-02-14T07:14:57.615Z,13.20
2023-02-14T07:17:24.604Z,11.15
2023-02-14T07:19:51.501Z,10.18
2023-02-14T07:22:18.383Z,10.50
2023-02-14T07:24:45.394Z,7.75
2023-02-14T07:27:12.351Z,9.27
2023-02-14T07:29:39.282Z,9.73
2023-02-14T07:32:06.456Z,8.43
2023-02-14T07:34:33.634Z,7.78
2023-02-14T07:37:01.131Z,9.32
2023-02-14T07:39:28.457Z,8.38
2023-02-14T07:41:55.500Z,10.35
2023-02-14T07:44:23.373Z,9.65
2023-02-14T07:46:50.353Z,11.13
2023-02-14T07:49:17.611Z,13.50
2023-02-14T07:51:44.673Z,9.68
2023-02-14T07:54:11.695Z,10.20
2023-02-14T07:56:38.630Z,8.43
2023-02-14T07:59:05.591Z,10.30
2023-02-14T08:01:32.768Z,9.73
2023-02-14T08:03:59.748Z,11.00
2023-02-14T08:06:28.063Z,13.40
2023-02-14T08:08:55.050Z,13.32
2023-02-14T08:11:41.975Z,11.32
2023-02-14T08:14:09.035Z,8.98
2023-02-14T08:16:36.105Z,8.25
2023-02-14T08:19:03.413Z,9.40
2023-02-14T08:21:30.758Z,10.15
2023-02-14T08:23:57.882Z,11.68
2023-02-14T08:26:25.273Z,9.38
2023-02-14T08:28:52.307Z,10.70
2023-02-14T08:31:34.997Z,10.13
2023-02-14T08:34:04.815Z,8.93
2023-02-14T08:36:31.925Z,9.65
2023-02-14T08:38:58.889Z,10.88
2023-02-14T08:41:26.066Z,10.52
2023-02-14T08:43:53.599Z,11.77
2023-02-14T08:46:20.745Z,11.65
2023-02-14T08:48:49.787Z,13.20
2023-02-14T08:51:17.282Z,14.27
2023-02-14T08:53:44.189Z,11.02
2023-02-14T08:56:13.514Z,11.43
2023-02-14T08:58:40.997Z,9.50
2023-02-14T09:01:12.722Z,9.27
2023-02-14T09:06:09.540Z,10.15
2023-02-14T09:08:37.686Z,11.35
2023-02-14T09:11:09.875Z,11.77
2023-02-14T09:13:37.025Z,10.63
2023-02-14T09:16:08.478Z,11.35
2023-02-14T09:18:35.630Z,12.27
2023-02-14T09:21:03.870Z,10.98
2023-02-14T09:23:30.889Z,10.02
2023-02-14T09:26:02.507Z,11.43
2023-02-14T09:28:29.580Z,12.18
2023-02-14T09:30:57.287Z,11.60
2023-02-14T09:33:28.165Z,11.20
2023-02-14T09:36:15.210Z,11.13
2023-02-14T09:38:42.220Z,11.95
2023-02-14T09:41:10.332Z,10.68
2023-02-14T09:43:51.234Z,10.32
2023-02-14T09:46:19.180Z,10.38
2023-02-14T09:48:47.617Z,10.52
2023-02-14T09:51:18.509Z,12.38
2023-02-14T09:53:49.449Z,11.20
2023-02-14T09:56:50.783Z,10.93
2023-02-14T09:59:47.288Z,9.77
2023-02-14T10:02:38.344Z,11.48
2023-02-14T10:05:22.694Z,10.05
2023-02-14T10:08:29.448Z,10.25
2023-02-14T10:11:12.106Z,10.88
2023-02-14T10:13:49.867Z,10.88
2023-02-14T10:16:29.627Z,11.13
2023-02-14T10:19:05.595Z,13.30
2023-02-14T10:21:38.397Z,9.68
2023-02-14T10:24:12.248Z,8.23
2023-02-14T10:26:41.436Z,7.80
2023-02-14T10:29:16.628Z,8.75
2023-02-14T10:32:04.298Z,9.00
2023-02-14T10:34:51.729Z,9.65
2023-02-14T10:37:48.509Z,9.13
2023-02-14T10:40:40.815Z,8.60
2023-02-14T10:43:47.688Z,9.40
2023-02-14T10:46:32.495Z,9.10
2023-02-14T10:49:08.628Z,10.80
2023-02-14T10:51:41.023Z,9.68
2023-02-14T10:54:29.250Z,13.07
2023-02-14T10:57:02.347Z,11.57
2023-02-14T10:59:53.554Z,11.95
2023-02-14T11:02:25.193Z,13.33
2023-02-14T11:04:52.733Z,11.93
2023-02-14T11:07:21.781Z,12.38
2023-02-14T11:09:48.938Z,13.38
2023-02-14T11:12:37.633Z,11.73
2023-02-14T11:15:26.017Z,11.88
2023-02-14T11:18:36.387Z,12.55
2023-02-14T11:21:27.990Z,11.55
2023-02-14T11:23:55.090Z,11.05
2023-02-14T11:26:27.439Z,11.98
2023-02-14T11:28:58.508Z,12.48
2023-02-14T11:31:37.345Z,12.50
2023-02-14T11:34:32.130Z,12.05
2023-02-14T11:36:59.811Z,11.68
2023-02-14T11:39:35.980Z,11.77
2023-02-14T11:42:05.387Z,9.93
2023-02-14T11:44:36.881Z,9.65
2023-02-14T11:47:28.215Z,11.30
2023-02-14T11:49:58.094Z,11.87
2023-02-14T11:52:29.086Z,12.45
2023-02-14T11:54:57.650Z,13.23
2023-02-14T11:57:32.473Z,12.35
2023-02-14T12:00:02.338Z,12.30
2023-02-14T12:02:41.754Z,11.55
2023-02-14T12:05:21.954Z,9.15
2023-02-14T12:07:51.238Z,8.02
2023-02-14T12:10:28.754Z,10.32
2023-02-14T12:13:20.893Z,8.65
2023-02-14T12:18:43.642Z,7.22
2023-02-14T12:21:39.772Z,10.18
2023-02-14T12:24:35.759Z,9.18
2023-02-14T12:27:26.492Z,9.32
2023-02-14T12:30:07.395Z,9.13
2023-02-14T12:32:34.942Z,9.70
2023-02-14T12:35:42.290Z,9.25
2023-02-14T12:38:49.067Z,10.52
2023-02-14T12:41:35.387Z,12.32
2023-02-14T12:44:21.687Z,12.32
2023-02-14T12:47:12.951Z,13.50
2023-02-14T12:50:03.821Z,13.40
2023-02-14T12:53:10.674Z,12.38
2023-02-14T12:56:07.274Z,10.38
2023-02-14T12:58:57.610Z,12.43
2023-02-14T13:02:04.522Z,11.85
2023-02-14T13:04:58.011Z,13.90
2023-02-14T13:07:39.583Z,17.40
2023-02-14T13:10:19.319Z,13.23
2023-02-14T13:13:09.675Z,14.23
2023-02-14T13:15:59.856Z,13.00
2023-02-14T13:18:38.433Z,12.77
2023-02-14T13:21:09.519Z,13.57
2023-02-14T13:23:42.634Z,11.90
2023-02-14T13:26:18.895Z,20.05
2023-02-14T13:28:52.015Z,13.50
2023-02-14T13:31:20.339Z,14.30
2023-02-14T13:33:55.019Z,13.88
2023-02-14T13:36:22.728Z,16.77
2023-02-14T13:38:52.248Z,14.88
2023-02-14T13:41:20.626Z,13.60
2023-02-14T13:44:02.788Z,13.23
2023-02-14T13:46:51.121Z,15.55
2023-02-14T13:49:26.288Z,14.32
2023-02-14T13:51:55.509Z,10.15
2023-02-14T13:54:37.231Z,10.13
2023-02-14T13:57:31.832Z,10.70
2023-02-14T14:00:23.506Z,8.95
2023-02-14T14:02:52.509Z,8.90
2023-02-14T14:05:47.749Z,9.80
2023-02-14T14:08:35.624Z,10.27
2023-02-14T14:11:06.210Z,9.05
2023-02-14T14:14:01.710Z,9.05
2023-02-14T14:16:35.145Z,5.82
2023-02-14T14:19:23.550Z,8.40
2023-02-14T14:22:10.808Z,8.25
2023-02-14T14:24:39.587Z,8.15
2023-02-14T14:27:14.648Z,8.63
2023-02-14T14:29:50.729Z,10.63
2023-02-14T14:32:34.196Z,8.65
2023-02-14T14:35:19.140Z,11.27
2023-02-14T14:37:55.055Z,10.20
2023-02-14T14:40:30.166Z,10.43
2023-02-14T14:43:05.712Z,11.05
2023-02-14T14:45:32.972Z,11.95
2023-02-14T14:48:09.710Z,9.90
2023-02-14T14:50:37.030Z,9.65
2023-02-14T14:53:11.949Z,10.27
2023-02-14T14:55:42.672Z,9.25
2023-02-14T14:58:29.833Z,8.02
2023-02-14T15:00:56.743Z,8.75
2023-02-14T15:03:26.189Z,7.82
2023-02-14T15:06:04.088Z,8.77
2023-02-14T15:08:33.154Z,8.63
2023-02-14T15:11:14.675Z,10.25
2023-02-14T15:13:57.501Z,8.18
2023-02-14T15:16:28.847Z,9.55
2023-02-14T15:19:09.427Z,10.35
2023-02-14T15:21:36.420Z,11.25
2023-02-14T15:24:03.590Z,12.07
2023-02-14T15:26:32.571Z,8.95
2023-02-14T15:29:05.183Z,8.90
2023-02-14T15:31:35.842Z,8.70
2023-02-14T15:34:04.907Z,7.28
2023-02-14T15:36:33.041Z,9.52
2023-02-14T15:39:06.383Z,10.52
2023-02-14T15:41:33.381Z,8.90
2023-02-14T15:44:00.322Z,8.77
2023-02-14T15:46:47.107Z,9.52
2023-02-14T15:49:20.820Z,10.85
2023-02-14T15:51:49.323Z,13.02
2023-02-14T15:54:38.592Z,11.73
2023-02-14T15:57:07.242Z,9.38
2023-02-14T15:59:36.526Z,12.48
2023-02-14T16:02:27.661Z,10.80
2023-02-14T16:04:55.071Z,9.40
2023-02-14T16:07:25.919Z,11.27
2023-02-14T16:10:32.634Z,9.73
2023-02-14T16:13:04.214Z,8.90
2023-02-14T16:15:33.632Z,10.90
2023-02-14T16:18:06.988Z,12.05
2023-02-14T16:20:45.839Z,13.32
2023-02-14T16:23:25.811Z,14.15
2023-02-14T16:25:53.607Z,14.70
2023-02-14T16:28:21.078Z,16.33
2023-02-14T16:30:54.896Z,13.25
2023-02-14T16:33:28.333Z,11.75
2023-02-14T16:35:58.599Z,11.85
2023-02-14T16:38:25.473Z,14.88
2023-02-14T16:40:54.361Z,16.67
2023-02-14T16:43:21.973Z,10.55
2023-02-14T16:45:48.855Z,9.20
2023-02-14T16:48:16.112Z,12.05
2023-02-14T16:50:43.574Z,14.30
2023-02-14T16:53:25.181Z,14.60
2023-02-14T16:55:53.831Z,12.60
2023-02-14T16:58:23.806Z,12.43
2023-02-14T17:00:50.751Z,15.15
2023-02-14T17:03:17.616Z,12.30
2023-02-14T17:05:44.475Z,11.52
2023-02-14T17:08:12.680Z,13.68
2023-02-14T17:10:40.718Z,13.30
2023-02-14T17:13:08.172Z,11.63
2023-02-14T17:15:35.763Z,12.63
2023-02-14T17:18:05.439Z,14.00
2023-02-14T17:20:32.452Z,14.93
2023-02-14T17:22:59.673Z,14.68
2023-02-14T17:25:26.634Z,15.65
2023-02-14T17:27:53.650Z,16.42
2023-02-14T17:30:20.588Z,15.00
2023-02-14T17:32:49.643Z,12.20
2023-02-14T17:35:16.877Z,16.65
2023-02-14T17:37:43.917Z,11.43
2023-02-14T17:40:11.857Z,11.57
2023-02-14T17:42:38.936Z,14.07
2023-02-14T17:45:11.869Z,12.68
2023-02-14T17:47:40.623Z,14.27
2023-02-14T17:50:08.093Z,15.88
2023-02-14T17:52:35.056Z,13.25
2023-02-14T17:55:02.044Z,14.43
2023-02-14T17:57:28.950Z,14.07
2023-02-14T17:59:55.853Z,14.95
2023-02-14T18:02:22.736Z,15.80
2023-02-14T18:04:49.676Z,17.65
2023-02-14T18:07:16.703Z,17.30
2023-02-14T18:09:43.682Z,14.52
2023-02-14T18:12:14.772Z,13.57
2023-02-14T18:14:42.089Z,14.00
2023-02-14T18:17:09.160Z,12.43
2023-02-14T18:19:36.122Z,16.00
2023-02-14T18:22:03.019Z,15.35
2023-02-14T18:24:29.839Z,15.93
2023-02-14T18:26:56.716Z,14.60
2023-02-14T18:29:24.594Z,11.85
2023-02-14T18:31:51.773Z,12.27
2023-02-14T18:34:18.821Z,11.82
2023-02-14T18:36:45.759Z,16.95
2023-02-14T18:39:12.815Z,18.38
2023-02-14T18:41:39.819Z,16.10
2023-02-14T18:44:10.029Z,17.30
2023-02-14T18:46:40.223Z,21.15
2023-02-14T18:49:08.579Z,20.75
2023-02-14T18:51:39.542Z,19.63
2023-02-14T18:54:07.355Z,15.35
2023-02-14T18:56:38.661Z,23.30
2023-02-14T18:59:09.677Z,24.80
2023-02-14T19:01:40.042Z,21.70
2023-02-14T19:04:16.181Z,13.80
2023-02-14T19:06:46.705Z,14.02
2023-02-14T19:09:18.075Z,15.02
2023-02-14T19:11:46.393Z,15.43
2023-02-14T19:14:14.117Z,22.65
2023-02-14T19:16:50.308Z,17.90
2023-02-14T19:19:18.779Z,13.38
2023-02-14T19:21:46.758Z,13.57
2023-02-14T19:24:16.923Z,14.52
2023-02-14T19:26:45.068Z,16.05
2023-02-14T19:29:14.476Z,15.57
2023-02-14T19:31:45.558Z,13.32
2023-02-14T19:34:19.963Z,18.13
2023-02-14T19:36:49.270Z,23.73
2023-02-14T19:39:17.430Z,20.70
2023-02-14T19:41:44.313Z,19.73
2023-02-14T19:44:13.933Z,15.38
2023-02-14T19:46:42.497Z,15.90
2023-02-14T19:49:14.444Z,13.40
2023-02-14T19:51:41.903Z,10.85
2023-02-14T19:54:12.872Z,14.60
2023-02-14T19:56:43.206Z,14.70
2023-02-14T19:59:10.936Z,15.57
2023-02-14T20:01:50.419Z,12.85
2023-02-14T20:04:20.465Z,15.40
2023-02-14T20:06:49.824Z,12.70
2023-02-14T20:09:17.816Z,13.80
2023-02-14T20:11:50.000Z,14.23
2023-02-14T20:14:23.463Z,14.15
2023-02-14T20:16:51.235Z,15.57
2023-02-14T20:19:21.169Z,13.85
2023-02-14T20:21:50.017Z,23.63
2023-02-14T20:24:20.955Z,18.20
2023-02-14T20:26:48.642Z,17.75
2023-02-14T20:29:17.299Z,13.77
2023-02-14T20:31:50.045Z,16.95
2023-02-14T20:34:22.721Z,18.13
2023-02-14T20:36:53.563Z,17.45
2023-02-14T20:39:21.787Z,18.33
2023-02-14T20:41:51.970Z,18.23
2023-02-14T20:44:22.396Z,15.82
2023-02-14T20:46:51.851Z,16.98
2023-02-14T20:49:19.877Z,17.55
2023-02-14T20:51:49.786Z,17.20
2023-02-14T20:54:18.301Z,19.77
2023-02-14T20:56:47.143Z,18.25
2023-02-14T20:59:14.267Z,18.33
2023-02-14T21:01:41.166Z,20.27
2023-02-14T21:04:08.320Z,20.60
2023-02-14T21:06:38.953Z,21.00
2023-02-14T21:09:06.970Z,19.92
2023-02-14T21:11:33.889Z,20.45
2023-02-14T21:14:01.655Z,16.95
2023-02-14T21:16:30.266Z,17.95
2023-02-14T21:19:01.769Z,13.93
2023-02-14T21:21:36.465Z,17.90
2023-02-14T21:24:06.932Z,17.30
2023-02-14T21:26:34.335Z,18.42
2023-02-14T21:29:01.782Z,18.90
2023-02-14T21:31:28.958Z,21.35
2023-02-14T21:33:57.509Z,18.75
2023-02-14T21:36:26.048Z,17.35
2023-02-14T21:38:55.181Z,15.63
2023-02-14T21:41:23.801Z,20.38
2023-02-14T21:43:53.156Z,18.15
2023-02-14T21:46:44.170Z,13.70
2023-02-14T21:49:32.585Z,13.70
2023-02-14T21:52:02.058Z,15.80
2023-02-14T21:54:28.913Z,12.93
2023-02-14T21:56:55.933Z,14.43
2023-02-14T21:59:22.957Z,12.43
2023-02-14T22:01:49.893Z,12.93
2023-02-14T22:04:16.803Z,11.80
2023-02-14T22:06:43.762Z,11.32
2023-02-14T22:09:14.843Z,11.80
2023-02-14T22:11:42.721Z,11.98
2023-02-14T22:14:09.699Z,11.73
2023-02-14T22:16:38.175Z,12.77
2023-02-14T22:19:08.943Z,13.30
2023-02-14T22:21:35.846Z,14.07
2023-02-14T22:24:02.756Z,11.18
2023-02-14T22:26:38.812Z,9.90
2023-02-14T22:29:05.787Z,9.85
2023-02-14T22:31:38.115Z,11.75
2023-02-14T22:34:06.600Z,12.18
2023-02-14T22:36:34.692Z,12.85
2023-02-14T22:39:01.737Z,13.52
2023-02-14T22:41:28.652Z,12.55
2023-02-14T22:43:55.915Z,10.85
2023-02-14T22:46:25.672Z,10.82
2023-02-14T22:48:53.478Z,11.88
2023-02-14T22:51:35.255Z,12.55
2023-02-14T22:54:08.113Z,12.52
2023-02-14T22:56:38.825Z,12.20
2023-02-14T22:59:09.109Z,12.80
2023-02-14T23:01:36.144Z,14.15
2023-02-14T23:04:04.245Z,13.68
2023-02-14T23:06:32.578Z,15.50
2023-02-14T23:08:59.511Z,13.98
2023-02-14T23:11:28.774Z,15.20
2023-02-14T23:14:16.072Z,15.18
2023-02-14T23:17:03.310Z,14.70
2023-02-14T23:19:51.797Z,15.68
2023-02-14T23:22:20.637Z,18.55
2023-02-14T23:24:48.552Z,18.92
2023-02-14T23:27:16.611Z,18.60
2023-02-14T23:29:43.471Z,16.52
2023-02-14T23:32:10.328Z,16.30
2023-02-14T23:34:39.591Z,16.55
2023-02-14T23:37:07.155Z,17.48
2023-02-14T23:39:36.689Z,18.50
2023-02-14T23:42:05.506Z,18.33
2023-02-14T23:44:33.352Z,18.05
2023-02-14T23:47:03.139Z,19.00
2023-02-14T23:49:31.755Z,17.88
2023-02-14T23:51:59.003Z,18.15
2023-02-14T23:54:26.123Z,18.40
2023-02-14T23:56:53.552Z,18.65
2023-02-14T23:59:21.201Z,17.40
